createdAt,value
2019-05-19T00:00:02.609Z,14.82
2019-05-19T00:01:02.602Z,14.94
2019-05-19T00:02:02.598Z,14.81
2019-05-19T00:03:02.608Z,14.89
2019-05-19T00:04:02.597Z,14.85
2019-05-19T00:05:02.598Z,14.88
2019-05-19T00:06:02.603Z,14.84
2019-05-19T00:07:02.593Z,14.88
2019-05-19T00:08:02.619Z,14.78
2019-05-19T00:09:02.593Z,14.77
2019-05-19T00:10:02.604Z,14.72
2019-05-19T00:11:02.587Z,14.72
2019-05-19T00:12:02.588Z,14.60
2019-05-19T00:13:02.588Z,14.65
2019-05-19T00:14:02.583Z,14.63
2019-05-19T00:15:02.582Z,14.68
2019-05-19T00:16:02.590Z,14.55
2019-05-19T00:17:02.581Z,14.59
2019-05-19T00:18:02.580Z,14.58
2019-05-19T00:19:02.631Z,14.53
2019-05-19T00:20:02.577Z,14.50
2019-05-19T00:21:02.575Z,14.51
2019-05-19T00:22:02.576Z,14.54
2019-05-19T00:23:02.581Z,14.58
2019-05-19T00:24:02.572Z,14.40
2019-05-19T00:25:02.570Z,14.47
2019-05-19T00:26:02.569Z,14.45
2019-05-19T00:27:02.569Z,14.43
2019-05-19T00:28:02.573Z,14.29
2019-05-19T00:29:02.567Z,14.33
2019-05-19T00:30:02.566Z,14.30
2019-05-19T00:31:02.564Z,14.20
2019-05-19T00:32:02.562Z,14.17
2019-05-19T00:33:02.560Z,14.22
2019-05-19T00:34:02.557Z,14.14
2019-05-19T00:35:02.559Z,14.14
2019-05-19T00:36:02.567Z,14.17
2019-05-19T00:37:02.552Z,14.11
2019-05-19T00:38:02.552Z,14.12
2019-05-19T00:39:02.551Z,14.14
2019-05-19T00:40:02.554Z,14.10
2019-05-19T00:41:02.548Z,14.07
2019-05-19T00:42:02.546Z,14.17
2019-05-19T00:43:02.545Z,14.12
2019-05-19T00:44:02.544Z,14.14
2019-05-19T00:45:02.542Z,14.20
2019-05-19T00:46:02.542Z,14.20
2019-05-19T00:47:02.552Z,14.26
2019-05-19T00:48:02.538Z,14.14
2019-05-19T00:49:02.536Z,14.22
2019-05-19T00:50:02.547Z,14.22
2019-05-19T00:51:02.541Z,14.26
2019-05-19T00:52:02.535Z,14.37
2019-05-19T00:53:02.528Z,14.40
2019-05-19T00:54:02.526Z,14.35
2019-05-19T00:55:02.527Z,14.40
2019-05-19T00:56:02.523Z,14.47
2019-05-19T00:57:02.523Z,14.45
2019-05-19T00:58:02.521Z,14.53
2019-05-19T00:59:02.520Z,14.43
2019-05-19T01:00:02.525Z,14.43
2019-05-19T01:01:02.515Z,14.47
2019-05-19T01:02:02.513Z,14.53
2019-05-19T01:03:02.512Z,14.47
2019-05-19T01:04:02.512Z,14.54
2019-05-19T01:05:02.507Z,14.55
2019-05-19T01:06:02.506Z,14.51
2019-05-19T01:07:02.505Z,14.51
2019-05-19T01:08:02.509Z,14.37
2019-05-19T01:09:02.501Z,14.45
2019-05-19T01:10:02.500Z,14.32
2019-05-19T01:11:02.543Z,14.37
2019-05-19T01:12:02.497Z,14.35
2019-05-19T01:13:02.517Z,14.28
2019-05-19T01:14:02.493Z,14.29
2019-05-19T01:15:02.491Z,14.18
2019-05-19T01:16:02.489Z,14.20
2019-05-19T01:17:02.572Z,14.20
2019-05-19T01:18:02.485Z,14.15
2019-05-19T01:19:02.488Z,14.22
2019-05-19T01:20:02.486Z,14.11
2019-05-19T01:21:02.480Z,14.17
2019-05-19T01:22:02.483Z,14.10
2019-05-19T01:23:02.477Z,14.11
2019-05-19T01:24:02.476Z,14.15
2019-05-19T01:25:02.474Z,14.11
2019-05-19T01:26:02.473Z,14.04
2019-05-19T01:27:02.470Z,14.10
2019-05-19T01:28:02.472Z,14.03
2019-05-19T01:29:02.467Z,13.96
2019-05-19T01:30:02.467Z,13.97
2019-05-19T01:31:02.467Z,14.00
2019-05-19T01:32:02.461Z,13.92
2019-05-19T01:33:02.463Z,13.87
2019-05-19T01:34:02.458Z,13.83
2019-05-19T01:35:02.456Z,13.83
2019-05-19T01:36:02.458Z,13.96
2019-05-19T01:37:02.454Z,13.86
2019-05-19T01:38:02.452Z,13.81
2019-05-19T01:39:02.449Z,13.81
2019-05-19T01:40:02.603Z,13.90
2019-05-19T01:41:02.445Z,13.79
2019-05-19T01:42:02.444Z,13.79
2019-05-19T01:43:02.444Z,13.78
2019-05-19T01:44:02.440Z,13.77
2019-05-19T01:45:02.438Z,13.72
2019-05-19T01:46:02.437Z,13.79
2019-05-19T01:47:02.435Z,13.65
2019-05-19T01:48:02.436Z,13.68
2019-05-19T01:49:02.432Z,13.65
2019-05-19T01:50:16.943Z,13.62
2019-05-19T01:51:02.428Z,13.56
2019-05-19T01:52:02.429Z,13.59
2019-05-19T01:53:02.423Z,13.62
2019-05-19T01:54:02.442Z,13.54
2019-05-19T01:55:02.420Z,13.57
2019-05-19T01:56:02.418Z,13.54
2019-05-19T01:57:02.417Z,13.56
2019-05-19T01:58:02.415Z,13.52
2019-05-19T01:59:02.415Z,13.54
2019-05-19T02:00:03.124Z,13.56
2019-05-19T02:01:02.409Z,13.53
2019-05-19T02:02:02.407Z,13.56
2019-05-19T02:03:02.412Z,13.54
2019-05-19T02:04:02.403Z,13.59
2019-05-19T02:05:02.407Z,13.57
2019-05-19T02:06:02.400Z,13.60
2019-05-19T02:07:02.404Z,13.59
2019-05-19T02:08:02.397Z,13.56
2019-05-19T02:09:02.396Z,13.47
2019-05-19T02:10:02.575Z,13.44
2019-05-19T02:11:02.398Z,13.47
2019-05-19T02:12:02.393Z,13.44
2019-05-19T02:13:05.019Z,13.42
2019-05-19T02:14:02.387Z,13.38
2019-05-19T02:15:02.384Z,13.30
2019-05-19T02:16:02.384Z,13.35
2019-05-19T02:17:02.380Z,13.23
2019-05-19T02:18:02.382Z,13.20
2019-05-19T02:19:02.507Z,13.22
2019-05-19T02:20:02.391Z,13.27
2019-05-19T02:21:02.473Z,13.22
2019-05-19T02:22:02.368Z,13.23
2019-05-19T02:23:02.371Z,13.16
2019-05-19T02:24:02.447Z,13.16
2019-05-19T02:25:02.363Z,13.19
2019-05-19T02:26:02.361Z,13.18
2019-05-19T02:27:02.359Z,13.19
2019-05-19T02:28:02.377Z,13.18
2019-05-19T02:29:02.357Z,13.18
2019-05-19T02:30:02.695Z,13.31
2019-05-19T02:31:02.368Z,13.27
2019-05-19T02:32:02.349Z,13.28
2019-05-19T02:33:02.349Z,13.27
2019-05-19T02:34:02.346Z,13.35
2019-05-19T02:35:02.349Z,13.35
2019-05-19T02:36:02.340Z,13.33
2019-05-19T02:37:02.358Z,13.31
2019-05-19T02:38:02.338Z,13.31
2019-05-19T02:39:02.340Z,13.31
2019-05-19T02:40:02.332Z,13.31
2019-05-19T02:41:02.342Z,13.22
2019-05-19T02:42:02.335Z,13.20
2019-05-19T02:43:02.336Z,13.19
2019-05-19T02:44:02.326Z,13.16
2019-05-19T02:45:02.321Z,13.13
2019-05-19T02:46:02.327Z,13.15
2019-05-19T02:47:02.316Z,13.05
2019-05-19T02:48:02.316Z,13.00
2019-05-19T02:49:02.316Z,13.01
2019-05-19T02:50:02.307Z,12.95
2019-05-19T02:51:02.307Z,13.00
2019-05-19T02:52:02.305Z,13.01
2019-05-19T02:53:02.309Z,12.97
2019-05-19T02:54:02.302Z,12.94
2019-05-19T02:55:02.298Z,12.83
2019-05-19T02:56:02.300Z,12.94
2019-05-19T02:57:02.294Z,12.93
2019-05-19T02:58:02.290Z,12.94
2019-05-19T02:59:02.293Z,12.95
2019-05-19T03:00:02.286Z,12.94
2019-05-19T03:01:02.285Z,12.93
2019-05-19T03:02:02.329Z,12.94
2019-05-19T03:03:02.281Z,12.94
2019-05-19T03:04:02.276Z,12.94
2019-05-19T03:05:02.274Z,13.03
2019-05-19T03:06:02.270Z,12.97
2019-05-19T03:07:02.275Z,13.09
2019-05-19T03:08:02.270Z,12.98
2019-05-19T03:09:02.264Z,12.98
2019-05-19T03:10:02.275Z,13.04
2019-05-19T03:11:02.265Z,13.04
2019-05-19T03:12:02.255Z,13.08
2019-05-19T03:13:02.255Z,13.16
2019-05-19T03:14:02.312Z,13.15
2019-05-19T03:15:02.250Z,13.12
2019-05-19T03:16:02.246Z,13.16
2019-05-19T03:17:02.243Z,13.13
2019-05-19T03:18:02.256Z,13.12
2019-05-19T03:19:02.240Z,13.16
2019-05-19T03:20:02.237Z,13.15
2019-05-19T03:21:11.244Z,13.08
2019-05-19T03:22:02.231Z,13.18
2019-05-19T03:23:02.231Z,13.13
2019-05-19T03:24:02.227Z,13.16
2019-05-19T03:25:02.227Z,13.18
2019-05-19T03:26:02.222Z,13.20
2019-05-19T03:27:02.224Z,13.12
2019-05-19T03:28:02.216Z,13.12
2019-05-19T03:29:02.217Z,13.20
2019-05-19T03:30:02.216Z,13.08
2019-05-19T03:31:02.212Z,13.09
2019-05-19T03:32:02.249Z,13.04
2019-05-19T03:33:02.239Z,13.04
2019-05-19T03:34:02.218Z,13.12
2019-05-19T03:35:02.296Z,13.03
2019-05-19T03:36:02.202Z,13.04
2019-05-19T03:37:02.197Z,13.15
2019-05-19T03:38:02.193Z,13.09
2019-05-19T03:39:02.198Z,13.12
2019-05-19T03:40:02.203Z,13.13
2019-05-19T03:41:02.190Z,13.04
2019-05-19T03:42:02.185Z,13.01
2019-05-19T03:43:02.180Z,13.04
2019-05-19T03:44:02.177Z,13.09
2019-05-19T03:45:02.185Z,13.04
2019-05-19T03:46:02.184Z,13.12
2019-05-19T03:47:02.168Z,13.08
2019-05-19T03:48:02.167Z,13.00
2019-05-19T03:49:02.164Z,13.00
2019-05-19T03:50:02.159Z,13.00
2019-05-19T03:51:02.166Z,13.08
2019-05-19T03:52:02.155Z,13.08
2019-05-19T03:53:02.159Z,13.20
2019-05-19T03:54:02.151Z,13.11
2019-05-19T03:55:02.155Z,13.09
2019-05-19T03:56:02.150Z,13.19
2019-05-19T03:57:02.158Z,13.09
2019-05-19T03:58:02.142Z,13.11
2019-05-19T03:59:02.163Z,13.11
2019-05-19T04:00:02.146Z,13.19
2019-05-19T04:01:02.143Z,13.11
2019-05-19T04:02:02.151Z,13.19
2019-05-19T04:03:02.128Z,13.12
2019-05-19T04:04:02.125Z,13.18
2019-05-19T04:05:02.126Z,13.11
2019-05-19T04:06:02.130Z,13.20
2019-05-19T04:07:02.117Z,13.16
2019-05-19T04:08:02.117Z,13.13
2019-05-19T04:09:02.113Z,13.12
2019-05-19T04:10:02.111Z,13.20
2019-05-19T04:11:02.108Z,13.19
2019-05-19T04:12:02.106Z,13.12
2019-05-19T04:13:02.130Z,13.16
2019-05-19T04:14:02.104Z,13.18
2019-05-19T04:15:02.104Z,13.13
2019-05-19T04:16:02.102Z,13.16
2019-05-19T04:17:02.094Z,13.15
2019-05-19T04:18:02.090Z,13.18
2019-05-19T04:19:02.099Z,13.22
2019-05-19T04:20:02.086Z,13.22
2019-05-19T04:21:02.084Z,13.23
2019-05-19T04:22:02.086Z,13.25
2019-05-19T04:23:02.088Z,13.25
2019-05-19T04:24:02.077Z,13.22
2019-05-19T04:25:02.075Z,13.33
2019-05-19T04:26:02.076Z,13.28
2019-05-19T04:27:02.070Z,13.31
2019-05-19T04:28:02.070Z,13.38
2019-05-19T04:29:02.067Z,13.41
2019-05-19T04:30:02.063Z,13.47
2019-05-19T04:31:02.060Z,13.42
2019-05-19T04:32:02.057Z,13.42
2019-05-19T04:33:02.057Z,13.54
2019-05-19T04:34:02.057Z,13.54
2019-05-19T04:35:02.051Z,13.59
2019-05-19T04:36:02.050Z,13.65
2019-05-19T04:37:02.048Z,13.63
2019-05-19T04:38:02.044Z,13.63
2019-05-19T04:39:02.046Z,13.75
2019-05-19T04:40:02.040Z,13.83
2019-05-19T04:41:02.039Z,13.77
2019-05-19T04:42:02.034Z,13.89
2019-05-19T04:43:02.036Z,13.89
2019-05-19T04:44:02.035Z,13.97
2019-05-19T04:45:02.031Z,13.85
2019-05-19T04:46:02.051Z,13.96
2019-05-19T04:47:02.026Z,13.99
2019-05-19T04:48:02.024Z,13.95
2019-05-19T04:49:02.023Z,14.03
2019-05-19T04:50:02.024Z,14.07
2019-05-19T04:51:02.019Z,14.10
2019-05-19T04:52:06.584Z,14.18
2019-05-19T04:53:02.014Z,14.25
2019-05-19T04:54:02.012Z,14.17
2019-05-19T04:55:02.010Z,14.29
2019-05-19T04:56:02.011Z,14.43
2019-05-19T04:57:02.006Z,14.40
2019-05-19T04:58:02.013Z,14.50
2019-05-19T04:59:02.005Z,14.40
2019-05-19T05:00:02.002Z,14.60
2019-05-19T05:01:01.998Z,14.63
2019-05-19T05:02:01.998Z,14.78
2019-05-19T05:03:02.001Z,14.81
2019-05-19T05:04:01.995Z,14.77
2019-05-19T05:05:02.011Z,14.89
2019-05-19T05:06:01.990Z,14.99
2019-05-19T05:07:01.989Z,14.99
2019-05-19T05:08:01.986Z,15.02
2019-05-19T05:09:01.987Z,15.04
2019-05-19T05:10:01.982Z,15.17
2019-05-19T05:11:01.981Z,15.10
2019-05-19T05:12:01.982Z,15.24
2019-05-19T05:13:01.981Z,15.21
2019-05-19T05:14:01.977Z,15.29
2019-05-19T05:15:02.012Z,15.27
2019-05-19T05:16:02.003Z,15.39
2019-05-19T05:17:01.972Z,15.52
2019-05-19T05:18:01.970Z,15.42
2019-05-19T05:19:01.983Z,15.59
2019-05-19T05:20:01.968Z,15.55
2019-05-19T05:21:01.966Z,15.67
2019-05-19T05:22:01.964Z,15.75
2019-05-19T05:23:01.964Z,15.79
2019-05-19T05:24:01.963Z,15.90
2019-05-19T05:25:01.968Z,15.86
2019-05-19T05:26:01.962Z,15.97
2019-05-19T05:27:01.983Z,16.00
2019-05-19T05:28:01.958Z,16.02
2019-05-19T05:29:01.960Z,16.10
2019-05-19T05:30:01.969Z,16.12
2019-05-19T05:31:01.955Z,16.16
2019-05-19T05:32:01.955Z,16.17
2019-05-19T05:33:01.954Z,16.31
2019-05-19T05:34:01.952Z,16.46
2019-05-19T05:35:01.951Z,16.33
2019-05-19T05:36:01.949Z,16.46
2019-05-19T05:37:01.952Z,16.53
2019-05-19T05:38:01.950Z,16.60
2019-05-19T05:39:01.950Z,16.56
2019-05-19T05:40:01.961Z,16.66
2019-05-19T05:41:01.948Z,16.72
2019-05-19T05:42:01.954Z,16.76
2019-05-19T05:43:01.971Z,16.86
2019-05-19T05:44:01.949Z,16.90
2019-05-19T05:45:01.944Z,17.06
2019-05-19T05:46:01.953Z,16.97
2019-05-19T05:47:01.945Z,16.99
2019-05-19T05:48:02.005Z,17.05
2019-05-19T05:49:01.947Z,17.24
2019-05-19T05:50:01.960Z,17.22
2019-05-19T05:51:01.942Z,17.33
2019-05-19T05:52:01.943Z,17.30
2019-05-19T05:53:01.955Z,17.38
2019-05-19T05:54:01.941Z,17.57
2019-05-19T05:55:01.944Z,17.65
2019-05-19T05:56:01.944Z,17.71
2019-05-19T05:57:01.944Z,17.78
2019-05-19T05:58:01.941Z,17.85
2019-05-19T05:59:01.942Z,17.92
2019-05-19T06:00:01.942Z,17.98
2019-05-19T06:01:01.943Z,18.05
2019-05-19T06:02:01.944Z,18.22
2019-05-19T06:03:01.943Z,18.22
2019-05-19T06:04:01.944Z,18.34
2019-05-19T06:05:01.944Z,18.33
2019-05-19T06:06:01.946Z,18.49
2019-05-19T06:07:01.945Z,18.56
2019-05-19T06:08:01.945Z,18.70
2019-05-19T06:09:01.947Z,18.63
2019-05-19T06:10:01.946Z,18.73
2019-05-19T06:11:01.946Z,18.78
2019-05-19T06:12:01.948Z,18.84
2019-05-19T06:13:01.950Z,18.88
2019-05-19T06:14:01.948Z,18.86
2019-05-19T06:15:01.952Z,18.89
2019-05-19T06:16:01.950Z,19.00
2019-05-19T06:17:01.952Z,19.04
2019-05-19T06:18:01.953Z,19.24
2019-05-19T06:19:01.952Z,19.24
2019-05-19T06:20:02.061Z,19.27
2019-05-19T06:21:01.957Z,19.41
2019-05-19T06:22:01.956Z,19.44
2019-05-19T06:23:01.961Z,19.54
2019-05-19T06:24:01.960Z,19.39
2019-05-19T06:25:01.962Z,19.41
2019-05-19T06:26:01.972Z,19.49
2019-05-19T06:27:01.963Z,19.51
2019-05-19T06:28:01.965Z,19.59
2019-05-19T06:29:02.006Z,19.58
2019-05-19T06:30:01.967Z,19.66
2019-05-19T06:31:01.969Z,19.58
2019-05-19T06:32:01.970Z,19.66
2019-05-19T06:33:01.974Z,19.73
2019-05-19T06:34:01.975Z,19.84
2019-05-19T06:35:02.148Z,19.84
2019-05-19T06:36:01.987Z,19.82
2019-05-19T06:37:02.072Z,19.84
2019-05-19T06:38:02.183Z,19.77
2019-05-19T06:39:01.995Z,19.79
2019-05-19T06:40:01.998Z,19.82
2019-05-19T06:41:01.992Z,19.81
2019-05-19T06:42:01.990Z,19.92
2019-05-19T06:43:01.991Z,19.96
2019-05-19T06:44:03.445Z,19.92
2019-05-19T06:45:01.994Z,19.95
2019-05-19T06:46:01.995Z,19.99
2019-05-19T06:47:02.001Z,20.02
2019-05-19T06:48:02.009Z,20.24
2019-05-19T06:49:02.011Z,20.34
2019-05-19T06:50:02.221Z,20.40
2019-05-19T06:51:02.011Z,20.47
2019-05-19T06:52:02.012Z,20.58
2019-05-19T06:53:13.274Z,20.37
2019-05-19T06:54:02.012Z,20.48
2019-05-19T06:55:02.015Z,20.55
2019-05-19T06:56:02.020Z,20.62
2019-05-19T06:57:02.020Z,20.69
2019-05-19T06:58:02.027Z,20.77
2019-05-19T06:59:02.196Z,20.84
2019-05-19T07:00:02.027Z,20.90
2019-05-19T07:01:02.031Z,20.88
2019-05-19T07:02:02.032Z,20.93
2019-05-19T07:03:02.035Z,20.70
2019-05-19T07:04:02.049Z,20.78
2019-05-19T07:05:02.050Z,20.77
2019-05-19T07:06:02.043Z,20.78
2019-05-19T07:07:02.066Z,20.78
2019-05-19T07:08:02.049Z,20.67
2019-05-19T07:09:02.051Z,20.60
2019-05-19T07:10:02.059Z,20.56
2019-05-19T07:11:02.055Z,20.74
2019-05-19T07:12:02.064Z,20.70
2019-05-19T07:13:02.065Z,20.81
2019-05-19T07:14:03.032Z,20.84
2019-05-19T07:15:02.068Z,20.77
2019-05-19T07:16:02.077Z,20.80
2019-05-19T07:17:02.079Z,20.66
2019-05-19T07:18:02.075Z,20.78
2019-05-19T07:19:02.083Z,20.87
2019-05-19T07:20:02.106Z,20.85
2019-05-19T07:21:02.086Z,20.90
2019-05-19T07:22:02.087Z,20.88
2019-05-19T07:23:02.092Z,20.87
2019-05-19T07:24:02.094Z,20.72
2019-05-19T07:25:02.097Z,20.75
2019-05-19T07:26:02.100Z,20.78
2019-05-19T07:27:02.101Z,20.78
2019-05-19T07:28:02.105Z,20.82
2019-05-19T07:29:02.108Z,20.84
2019-05-19T07:30:02.143Z,20.95
2019-05-19T07:31:02.422Z,20.87
2019-05-19T07:32:02.178Z,20.92
2019-05-19T07:33:02.124Z,20.87
2019-05-19T07:34:02.170Z,20.95
2019-05-19T07:35:02.126Z,21.14
2019-05-19T07:36:02.130Z,21.24
2019-05-19T07:37:02.134Z,21.32
2019-05-19T07:38:02.143Z,21.37
2019-05-19T07:39:02.139Z,21.48
2019-05-19T07:40:02.144Z,21.51
2019-05-19T07:41:02.149Z,21.39
2019-05-19T07:42:02.150Z,21.35
2019-05-19T07:43:02.154Z,21.39
2019-05-19T07:44:02.156Z,21.36
2019-05-19T07:45:02.161Z,21.76
2019-05-19T07:46:02.162Z,22.38
2019-05-19T07:47:02.166Z,22.38
2019-05-19T07:48:02.172Z,22.65
2019-05-19T07:49:02.174Z,22.78
2019-05-19T07:50:02.178Z,22.76
2019-05-19T07:51:02.210Z,23.02
2019-05-19T07:52:02.188Z,23.40
2019-05-19T07:53:02.204Z,24.14
2019-05-19T07:54:02.197Z,24.63
2019-05-19T07:55:02.207Z,25.07
2019-05-19T07:56:02.209Z,25.14
2019-05-19T07:57:02.216Z,25.50
2019-05-19T07:58:02.218Z,25.88
2019-05-19T07:59:02.225Z,25.88
2019-05-19T08:00:02.304Z,25.08
2019-05-19T08:01:02.239Z,25.28
2019-05-19T08:02:02.247Z,25.28
2019-05-19T08:03:02.253Z,25.70
2019-05-19T08:04:02.259Z,25.58
2019-05-19T08:05:02.267Z,25.70
2019-05-19T08:06:02.434Z,26.15
2019-05-19T08:07:02.281Z,26.00
2019-05-19T08:08:02.291Z,26.23
2019-05-19T08:09:02.298Z,26.62
2019-05-19T08:10:02.320Z,26.80
2019-05-19T08:11:02.318Z,26.02
2019-05-19T08:12:02.328Z,25.88
2019-05-19T08:13:02.346Z,25.53
2019-05-19T08:14:02.343Z,25.60
2019-05-19T08:15:02.366Z,25.58
2019-05-19T08:16:02.364Z,25.62
2019-05-19T08:17:02.377Z,25.63
2019-05-19T08:18:02.382Z,25.62
2019-05-19T08:19:02.395Z,25.68
2019-05-19T08:20:02.404Z,25.55
2019-05-19T08:21:02.413Z,25.40
2019-05-19T08:22:02.470Z,25.06
2019-05-19T08:23:02.432Z,25.33
2019-05-19T08:24:02.476Z,25.66
2019-05-19T08:25:02.452Z,25.58
2019-05-19T08:26:02.460Z,25.68
2019-05-19T08:27:02.491Z,25.91
2019-05-19T08:28:08.356Z,26.05
2019-05-19T08:29:02.491Z,25.73
2019-05-19T08:30:02.502Z,25.16
2019-05-19T08:31:02.511Z,25.16
2019-05-19T08:32:02.522Z,25.43
2019-05-19T08:33:02.532Z,25.81
2019-05-19T08:34:02.552Z,25.58
2019-05-19T08:35:04.347Z,25.65
2019-05-19T08:36:02.562Z,25.88
2019-05-19T08:37:02.594Z,26.02
2019-05-19T08:38:02.583Z,26.28
2019-05-19T08:39:02.592Z,26.63
2019-05-19T08:40:02.603Z,27.12
2019-05-19T08:41:02.634Z,27.64
2019-05-19T08:42:02.624Z,28.02
2019-05-19T08:43:02.640Z,27.71
2019-05-19T08:44:02.648Z,28.33
2019-05-19T08:45:02.657Z,27.44
2019-05-19T08:46:02.672Z,27.35
2019-05-19T08:47:02.677Z,27.44
2019-05-19T08:48:02.690Z,27.75
2019-05-19T08:49:02.701Z,27.65
2019-05-19T08:50:02.712Z,27.49
2019-05-19T08:51:02.725Z,27.30
2019-05-19T08:52:02.740Z,26.89
2019-05-19T08:53:02.831Z,26.84
2019-05-19T08:54:13.898Z,26.68
2019-05-19T08:55:02.772Z,26.83
2019-05-19T08:56:02.784Z,26.92
2019-05-19T08:57:02.805Z,27.17
2019-05-19T08:58:02.846Z,27.33
2019-05-19T08:59:02.820Z,27.27
2019-05-19T09:00:02.832Z,27.30
2019-05-19T09:01:02.845Z,27.21
2019-05-19T09:02:02.858Z,26.75
2019-05-19T09:03:03.183Z,26.73
2019-05-19T09:04:02.879Z,26.66
2019-05-19T09:05:02.891Z,26.56
2019-05-19T09:06:02.909Z,26.34
2019-05-19T09:07:02.916Z,26.52
2019-05-19T09:08:02.927Z,26.75
2019-05-19T09:09:02.943Z,27.35
2019-05-19T09:10:02.950Z,27.71
2019-05-19T09:11:02.962Z,27.27
2019-05-19T09:12:02.987Z,27.22
2019-05-19T09:13:02.986Z,27.35
2019-05-19T09:14:02.997Z,27.11
2019-05-19T09:15:03.010Z,26.78
2019-05-19T09:16:03.022Z,27.07
2019-05-19T09:17:03.281Z,27.29
2019-05-19T09:18:03.050Z,27.85
2019-05-19T09:19:03.059Z,28.30
2019-05-19T09:20:03.141Z,28.48
2019-05-19T09:21:03.085Z,27.90
2019-05-19T09:22:03.098Z,27.32
2019-05-19T09:23:03.143Z,26.51
2019-05-19T09:24:03.138Z,26.26
2019-05-19T09:25:03.194Z,26.52
2019-05-19T09:26:03.153Z,26.89
2019-05-19T09:27:03.168Z,27.36
2019-05-19T09:28:03.178Z,27.42
2019-05-19T09:29:03.190Z,27.65
2019-05-19T09:30:03.204Z,27.86
2019-05-19T09:31:03.221Z,27.60
2019-05-19T09:32:06.459Z,27.74
2019-05-19T09:33:03.283Z,27.85
2019-05-19T09:34:03.259Z,27.85
2019-05-19T09:35:03.272Z,27.71
2019-05-19T09:36:03.286Z,27.68
2019-05-19T09:37:03.299Z,27.59
2019-05-19T09:38:03.310Z,27.55
2019-05-19T09:39:03.323Z,27.58
2019-05-19T09:40:03.336Z,27.78
2019-05-19T09:41:03.355Z,27.29
2019-05-19T09:42:03.365Z,27.21
2019-05-19T09:43:03.397Z,27.80
2019-05-19T09:44:03.389Z,28.23
2019-05-19T09:45:03.400Z,28.78
2019-05-19T09:46:03.413Z,28.82
2019-05-19T09:47:03.426Z,29.02
2019-05-19T09:48:03.439Z,29.57
2019-05-19T09:49:03.452Z,29.53
2019-05-19T09:50:03.467Z,29.24
2019-05-19T09:51:03.478Z,28.86
2019-05-19T09:52:03.491Z,28.20
2019-05-19T09:53:03.542Z,28.04
2019-05-19T09:54:03.518Z,27.08
2019-05-19T09:55:03.535Z,26.93
2019-05-19T09:56:03.544Z,27.40
2019-05-19T09:57:03.560Z,28.01
2019-05-19T09:58:03.570Z,28.35
2019-05-19T09:59:03.585Z,28.79
2019-05-19T10:00:03.598Z,29.39
2019-05-19T10:01:03.616Z,28.49
2019-05-19T10:02:03.624Z,27.83
2019-05-19T10:03:03.920Z,27.40
2019-05-19T10:04:05.386Z,27.52
2019-05-19T10:05:03.664Z,27.75
2019-05-19T10:06:03.679Z,27.39
2019-05-19T10:07:04.091Z,26.70
2019-05-19T10:08:03.705Z,26.93
2019-05-19T10:09:03.718Z,27.10
2019-05-19T10:10:03.731Z,27.18
2019-05-19T10:11:03.746Z,27.21
2019-05-19T10:12:03.757Z,27.12
2019-05-19T10:13:03.844Z,27.83
2019-05-19T10:14:03.783Z,28.38
2019-05-19T10:15:03.830Z,29.10
2019-05-19T10:16:03.809Z,29.81
2019-05-19T10:17:03.824Z,30.30
2019-05-19T10:18:03.837Z,30.13
2019-05-19T10:19:03.858Z,30.32
2019-05-19T10:20:03.862Z,30.47
2019-05-19T10:21:03.876Z,30.31
2019-05-19T10:22:03.887Z,30.30
2019-05-19T10:23:03.950Z,29.69
2019-05-19T10:24:03.914Z,29.61
2019-05-19T10:25:20.336Z,30.16
2019-05-19T10:26:03.944Z,29.94
2019-05-19T10:27:03.957Z,30.23
2019-05-19T10:28:03.971Z,28.67
2019-05-19T10:29:03.982Z,28.30
2019-05-19T10:30:03.996Z,27.83
2019-05-19T10:31:04.015Z,28.08
2019-05-19T10:32:04.025Z,28.49
2019-05-19T10:33:04.037Z,28.76
2019-05-19T10:34:04.050Z,29.12
2019-05-19T10:35:04.065Z,29.41
2019-05-19T10:36:04.080Z,29.61
2019-05-19T10:37:04.107Z,28.78
2019-05-19T10:38:04.106Z,28.49
2019-05-19T10:39:04.122Z,28.91
2019-05-19T10:40:04.135Z,29.02
2019-05-19T10:41:04.148Z,28.45
2019-05-19T10:42:04.165Z,28.32
2019-05-19T10:43:04.178Z,28.00
2019-05-19T10:44:04.190Z,27.55
2019-05-19T10:45:04.206Z,27.39
2019-05-19T10:46:04.222Z,26.70
2019-05-19T10:47:04.233Z,26.48
2019-05-19T10:48:04.245Z,26.34
2019-05-19T10:49:04.262Z,26.25
2019-05-19T10:50:04.272Z,25.88
2019-05-19T10:51:04.293Z,25.46
2019-05-19T10:52:04.298Z,24.86
2019-05-19T10:53:04.311Z,24.85
2019-05-19T10:54:04.325Z,24.96
2019-05-19T10:55:04.339Z,24.92
2019-05-19T10:56:04.347Z,25.04
2019-05-19T10:57:04.363Z,24.55
2019-05-19T10:58:04.370Z,24.38
2019-05-19T10:59:07.008Z,24.68
2019-05-19T11:00:04.394Z,24.78
2019-05-19T11:01:04.405Z,24.70
2019-05-19T11:02:04.416Z,24.60
2019-05-19T11:03:04.426Z,24.85
2019-05-19T11:04:04.437Z,25.14
2019-05-19T11:05:04.448Z,25.69
2019-05-19T11:06:04.523Z,25.91
2019-05-19T11:07:04.468Z,25.93
2019-05-19T11:08:04.479Z,26.23
2019-05-19T11:09:04.489Z,26.68
2019-05-19T11:10:04.499Z,27.00
2019-05-19T11:11:04.510Z,27.18
2019-05-19T11:12:04.519Z,27.32
2019-05-19T11:13:04.530Z,27.29
2019-05-19T11:14:04.541Z,26.93
2019-05-19T11:15:04.548Z,26.43
2019-05-19T11:16:04.561Z,26.05
2019-05-19T11:17:04.569Z,25.73
2019-05-19T11:18:06.460Z,25.54
2019-05-19T11:19:04.593Z,25.06
2019-05-19T11:20:04.599Z,25.11
2019-05-19T11:21:04.609Z,24.98
2019-05-19T11:22:04.620Z,25.14
2019-05-19T11:23:04.630Z,25.26
2019-05-19T11:24:04.642Z,25.48
2019-05-19T11:25:04.648Z,25.72
2019-05-19T11:26:04.659Z,25.85
2019-05-19T11:27:04.668Z,25.99
2019-05-19T11:28:04.677Z,26.00
2019-05-19T11:29:04.689Z,26.07
2019-05-19T11:30:04.695Z,25.78
2019-05-19T11:31:04.708Z,25.68
2019-05-19T11:32:04.714Z,25.66
2019-05-19T11:33:04.725Z,25.59
2019-05-19T11:34:04.733Z,25.66
2019-05-19T11:35:04.742Z,25.72
2019-05-19T11:36:04.751Z,25.78
2019-05-19T11:37:07.288Z,25.87
2019-05-19T11:38:04.767Z,25.90
2019-05-19T11:39:04.776Z,26.09
2019-05-19T11:40:04.786Z,26.23
2019-05-19T11:41:04.793Z,26.23
2019-05-19T11:42:04.805Z,26.06
2019-05-19T11:43:04.811Z,26.05
2019-05-19T11:44:04.827Z,26.15
2019-05-19T11:45:04.829Z,25.72
2019-05-19T11:46:04.835Z,25.80
2019-05-19T11:47:04.845Z,25.68
2019-05-19T11:48:04.856Z,26.10
2019-05-19T11:49:04.866Z,26.41
2019-05-19T11:50:04.870Z,26.75
2019-05-19T11:51:04.880Z,26.90
2019-05-19T11:52:04.887Z,27.15
2019-05-19T11:53:04.896Z,27.29
2019-05-19T11:54:04.905Z,27.18
2019-05-19T11:55:04.912Z,27.12
2019-05-19T11:56:07.359Z,27.11
2019-05-19T11:57:04.930Z,26.93
2019-05-19T11:58:04.937Z,26.90
2019-05-19T11:59:04.946Z,26.85
2019-05-19T12:00:48.287Z,26.75
2019-05-19T12:01:48.295Z,26.71
2019-05-19T12:04:31.643Z,26.52
2019-05-19T12:05:31.666Z,25.98
2019-05-19T12:06:39.600Z,25.41
2019-05-19T12:07:31.668Z,25.47
2019-05-19T12:08:31.676Z,25.54
2019-05-19T12:09:31.684Z,25.78
2019-05-19T12:10:31.692Z,25.96
2019-05-19T12:11:32.710Z,25.96
2019-05-19T12:12:32.112Z,26.10
2019-05-19T12:13:34.781Z,26.15
2019-05-19T12:14:31.729Z,26.21
2019-05-19T12:15:31.733Z,26.09
2019-05-19T12:16:31.739Z,26.13
2019-05-19T12:17:31.748Z,26.26
2019-05-19T12:18:31.758Z,26.13
2019-05-19T12:19:31.763Z,26.03
2019-05-19T12:20:31.802Z,25.85
2019-05-19T12:21:31.780Z,25.87
2019-05-19T12:22:31.786Z,25.70
2019-05-19T12:23:31.795Z,25.66
2019-05-19T12:24:31.802Z,25.31
2019-05-19T12:25:31.811Z,25.36
2019-05-19T12:26:34.703Z,25.46
2019-05-19T12:27:31.826Z,25.63
2019-05-19T12:28:31.834Z,25.48
2019-05-19T12:29:31.842Z,25.38
2019-05-19T12:30:31.849Z,25.36
2019-05-19T12:31:31.855Z,25.43
2019-05-19T12:32:31.863Z,25.70
2019-05-19T12:33:31.871Z,25.72
2019-05-19T12:34:31.879Z,25.47
2019-05-19T12:35:31.887Z,25.66
2019-05-19T12:36:31.895Z,25.84
2019-05-19T12:37:31.902Z,25.77
2019-05-19T12:38:31.909Z,25.85
2019-05-19T12:39:31.917Z,26.06
2019-05-19T12:40:31.924Z,26.00
2019-05-19T12:41:31.932Z,26.06
2019-05-19T12:42:31.938Z,26.05
2019-05-19T12:43:31.946Z,25.93
2019-05-19T12:44:31.954Z,25.77
2019-05-19T12:45:31.969Z,26.00
2019-05-19T12:46:31.979Z,26.09
2019-05-19T12:47:31.974Z,26.31
2019-05-19T12:48:32.003Z,26.45
2019-05-19T12:49:31.990Z,26.71
2019-05-19T12:50:31.996Z,26.81
2019-05-19T12:51:32.003Z,26.45
2019-05-19T12:52:32.012Z,26.02
2019-05-19T12:53:32.019Z,25.68
2019-05-19T12:54:32.030Z,25.83